createdAt,value
2018-11-29T00:02:29.131Z,45.40
2018-11-29T00:05:04.073Z,45.40
2018-11-29T00:07:39.319Z,42.70
2018-11-29T00:10:13.977Z,40.70
2018-11-29T00:12:48.491Z,42.90
2018-11-29T00:15:23.162Z,42.47
2018-11-29T00:17:57.879Z,46.33
2018-11-29T00:20:33.059Z,34.63
2018-11-29T00:23:07.180Z,35.00
2018-11-29T00:25:41.774Z,43.83
2018-11-29T00:28:16.536Z,36.27
2018-11-29T00:30:51.237Z,32.97
2018-11-29T00:33:26.239Z,37.00
2018-11-29T00:36:00.836Z,33.30
2018-11-29T00:38:35.623Z,38.40
2018-11-29T00:41:10.394Z,35.00
2018-11-29T00:43:45.063Z,38.30
2018-11-29T00:46:19.658Z,34.50
2018-11-29T00:48:54.627Z,36.77
2018-11-29T00:51:29.171Z,33.33
2018-11-29T00:54:03.986Z,37.47
2018-11-29T00:56:38.268Z,32.23
2018-11-29T00:59:12.948Z,37.20
2018-11-29T01:01:52.933Z,35.67
2018-11-29T01:04:27.755Z,39.17
2018-11-29T01:07:02.669Z,55.63
2018-11-29T01:09:37.397Z,36.63
2018-11-29T01:12:12.042Z,38.33
2018-11-29T01:14:47.189Z,33.33
2018-11-29T01:17:21.307Z,35.10
2018-11-29T01:19:55.950Z,31.83
2018-11-29T01:22:30.603Z,38.07
2018-11-29T01:25:07.103Z,37.40
2018-11-29T01:27:44.035Z,31.83
2018-11-29T01:30:20.103Z,36.40
2018-11-29T01:32:55.094Z,32.13
2018-11-29T01:35:29.762Z,41.00
2018-11-29T01:38:04.491Z,37.80
2018-11-29T01:40:39.004Z,39.07
2018-11-29T01:43:13.723Z,40.00
2018-11-29T01:45:48.548Z,39.33
2018-11-29T01:48:23.135Z,35.50
2018-11-29T01:50:58.039Z,38.63
2018-11-29T01:53:32.712Z,37.03
2018-11-29T01:56:07.417Z,38.63
2018-11-29T01:58:42.291Z,32.17
2018-11-29T02:01:17.132Z,38.50
2018-11-29T02:03:51.703Z,36.50
2018-11-29T02:06:26.448Z,29.60
2018-11-29T02:09:01.072Z,30.50
2018-11-29T02:11:35.627Z,31.63
2018-11-29T02:14:10.315Z,37.90
2018-11-29T02:16:44.968Z,36.60
2018-11-29T02:19:19.658Z,36.47
2018-11-29T02:22:01.467Z,32.40
2018-11-29T02:24:36.495Z,26.10
2018-11-29T02:27:11.585Z,35.83
2018-11-29T02:29:45.912Z,31.97
2018-11-29T02:32:20.678Z,31.03
2018-11-29T02:34:55.016Z,32.03
2018-11-29T02:37:29.716Z,29.33
2018-11-29T02:40:07.112Z,33.30
2018-11-29T02:42:42.512Z,36.80
2018-11-29T02:45:20.379Z,32.27
2018-11-29T02:47:55.315Z,38.37
2018-11-29T02:50:29.944Z,33.97
2018-11-29T02:53:04.519Z,30.10
2018-11-29T02:55:39.310Z,31.63
2018-11-29T02:58:14.007Z,26.47
2018-11-29T03:00:48.698Z,38.60
2018-11-29T03:03:23.289Z,43.83
2018-11-29T03:05:57.945Z,43.57
2018-11-29T03:08:33.113Z,33.57
2018-11-29T03:11:08.240Z,35.73
2018-11-29T03:13:43.541Z,35.83
2018-11-29T03:16:17.924Z,33.53
2018-11-29T03:18:52.659Z,40.70
2018-11-29T03:21:27.331Z,38.33
2018-11-29T03:24:01.993Z,42.50
2018-11-29T03:26:36.912Z,37.23
2018-11-29T03:29:11.647Z,34.73
2018-11-29T03:31:45.989Z,35.63
2018-11-29T03:34:20.804Z,38.73
2018-11-29T03:36:55.985Z,37.70
2018-11-29T03:39:30.365Z,35.37
2018-11-29T03:42:05.462Z,33.70
2018-11-29T03:44:40.314Z,37.13
2018-11-29T03:47:15.393Z,36.13
2018-11-29T03:49:49.584Z,37.10
2018-11-29T03:52:24.215Z,28.43
2018-11-29T03:54:58.926Z,34.23
2018-11-29T03:57:33.959Z,36.07
2018-11-29T04:00:14.735Z,39.77
2018-11-29T04:02:49.051Z,38.13
2018-11-29T04:05:23.591Z,35.90
2018-11-29T04:07:58.844Z,33.60
2018-11-29T04:10:33.131Z,31.63
2018-11-29T04:13:07.955Z,33.83
2018-11-29T04:15:42.603Z,37.90
2018-11-29T04:18:17.129Z,37.93
2018-11-29T04:20:51.619Z,33.63
2018-11-29T04:23:26.109Z,36.33
2018-11-29T04:26:00.769Z,35.23
2018-11-29T04:28:35.236Z,32.03
2018-11-29T04:31:09.895Z,36.77
2018-11-29T04:33:45.078Z,38.87
2018-11-29T04:36:19.387Z,30.70
2018-11-29T04:38:54.967Z,27.80
2018-11-29T04:41:30.476Z,25.60
2018-11-29T04:44:05.499Z,28.50
2018-11-29T04:46:48.047Z,32.13
2018-11-29T04:49:22.434Z,28.20
2018-11-29T04:51:57.479Z,31.03
2018-11-29T04:54:31.619Z,27.07
2018-11-29T04:57:07.107Z,30.30
2018-11-29T04:59:42.600Z,30.47
2018-11-29T05:02:17.224Z,34.77
2018-11-29T05:04:51.790Z,30.33
2018-11-29T05:07:26.883Z,31.83
2018-11-29T05:10:01.099Z,27.97
2018-11-29T05:12:35.797Z,29.33
2018-11-29T05:15:11.051Z,32.87
2018-11-29T05:17:46.130Z,35.47
2018-11-29T05:20:20.695Z,31.60
2018-11-29T05:22:55.692Z,32.23
2018-11-29T05:25:30.002Z,37.93
2018-11-29T05:28:05.347Z,37.40
2018-11-29T05:30:40.503Z,30.17
2018-11-29T05:33:15.411Z,33.70
2018-11-29T05:35:49.743Z,30.60
2018-11-29T05:38:24.423Z,32.70
2018-11-29T05:40:59.235Z,33.03
2018-11-29T05:43:34.336Z,26.07
2018-11-29T05:46:09.428Z,34.70
2018-11-29T05:48:44.041Z,32.53
2018-11-29T05:51:18.699Z,31.43
2018-11-29T05:53:53.427Z,33.23
2018-11-29T05:56:27.915Z,29.13
2018-11-29T05:59:03.082Z,30.60
2018-11-29T06:01:39.536Z,34.87
2018-11-29T06:04:13.662Z,36.47
2018-11-29T06:06:48.193Z,33.07
2018-11-29T06:09:22.804Z,32.77
2018-11-29T06:11:57.518Z,30.33
2018-11-29T06:14:32.433Z,31.40
2018-11-29T06:17:14.231Z,34.07
2018-11-29T06:19:48.687Z,31.03
2018-11-29T06:22:23.919Z,34.53
2018-11-29T06:24:58.543Z,37.80
2018-11-29T06:27:33.281Z,31.47
2018-11-29T06:30:14.703Z,33.97
2018-11-29T06:32:50.494Z,31.70
2018-11-29T06:35:25.424Z,38.03
2018-11-29T06:38:00.117Z,26.67
2018-11-29T06:40:35.969Z,30.83
2018-11-29T06:43:10.255Z,31.57
2018-11-29T06:45:44.730Z,33.00
2018-11-29T06:48:19.391Z,27.77
2018-11-29T06:50:54.578Z,32.03
2018-11-29T06:53:34.473Z,31.97
2018-11-29T06:56:09.767Z,29.57
2018-11-29T06:58:44.023Z,29.93
2018-11-29T07:01:19.446Z,32.80
2018-11-29T07:03:54.186Z,26.93
2018-11-29T07:06:29.692Z,29.97
2018-11-29T07:09:07.364Z,25.53
2018-11-29T07:11:42.107Z,33.10
2018-11-29T07:14:17.214Z,26.90
2018-11-29T07:16:51.926Z,27.13
2018-11-29T07:19:26.565Z,23.13
2018-11-29T07:22:01.280Z,29.30
2018-11-29T07:24:36.702Z,29.57
2018-11-29T07:27:11.753Z,23.70
2018-11-29T07:29:46.125Z,22.17
2018-11-29T07:32:23.658Z,29.07
2018-11-29T07:34:58.158Z,18.80
2018-11-29T07:37:33.015Z,25.60
2018-11-29T07:40:13.714Z,19.30
2018-11-29T07:42:51.843Z,16.87
2018-11-29T07:45:26.559Z,17.97
2018-11-29T07:48:01.554Z,18.47
2018-11-29T07:50:35.835Z,25.70
2018-11-29T07:53:10.761Z,16.00
2018-11-29T07:55:45.141Z,16.83
2018-11-29T07:58:19.766Z,14.97
2018-11-29T08:00:54.269Z,15.50
2018-11-29T08:03:29.000Z,14.27
2018-11-29T08:06:03.787Z,17.67
2018-11-29T08:08:38.442Z,13.30
2018-11-29T08:11:13.782Z,12.43
2018-11-29T08:13:48.640Z,13.50
2018-11-29T08:16:24.007Z,12.77
2018-11-29T08:18:59.059Z,13.60
2018-11-29T08:21:33.725Z,12.10
2018-11-29T08:24:08.779Z,13.53
2018-11-29T08:26:43.086Z,11.37
2018-11-29T08:29:17.801Z,15.37
2018-11-29T08:31:52.599Z,15.47
2018-11-29T08:34:27.498Z,17.37
2018-11-29T08:37:02.203Z,18.53
2018-11-29T08:39:36.741Z,19.70
2018-11-29T08:42:11.447Z,16.40
2018-11-29T08:44:46.057Z,13.17
2018-11-29T08:47:20.769Z,24.73
2018-11-29T08:49:55.247Z,19.63
2018-11-29T08:52:29.852Z,18.20
2018-11-29T08:55:07.338Z,20.20
2018-11-29T08:57:42.290Z,19.43
2018-11-29T09:00:18.326Z,19.20
2018-11-29T09:02:53.367Z,18.60
2018-11-29T09:05:27.881Z,21.23
2018-11-29T09:08:02.538Z,13.90
2018-11-29T09:10:37.127Z,18.30
2018-11-29T09:13:11.652Z,16.17
2018-11-29T09:15:46.379Z,14.80
2018-11-29T09:18:21.028Z,14.00
2018-11-29T09:20:55.790Z,10.80
2018-11-29T09:23:30.556Z,12.20
2018-11-29T09:26:06.835Z,12.37
2018-11-29T09:28:41.124Z,11.13
2018-11-29T09:31:16.087Z,15.20
2018-11-29T09:33:51.113Z,13.47
2018-11-29T09:36:25.840Z,11.50
2018-11-29T09:39:00.693Z,10.60
2018-11-29T09:41:35.918Z,13.03
2018-11-29T09:44:10.944Z,11.73
2018-11-29T09:46:45.539Z,12.03
2018-11-29T09:49:20.144Z,10.83
2018-11-29T09:51:54.837Z,12.90
2018-11-29T09:54:29.450Z,12.30
2018-11-29T09:57:03.986Z,12.57
2018-11-29T09:59:38.652Z,11.23
2018-11-29T10:02:13.279Z,12.60
2018-11-29T10:04:47.888Z,10.53
2018-11-29T10:07:23.351Z,14.07
2018-11-29T10:09:58.243Z,13.17
2018-11-29T10:12:33.140Z,14.93
2018-11-29T10:15:10.162Z,10.70
2018-11-29T10:17:45.171Z,11.77
2018-11-29T10:20:19.771Z,13.60
2018-11-29T10:22:54.923Z,10.00
2018-11-29T10:25:29.889Z,13.70
2018-11-29T10:28:08.286Z,15.37
2018-11-29T10:30:50.364Z,14.27
2018-11-29T10:33:25.609Z,9.77
2018-11-29T10:36:00.000Z,10.93
2018-11-29T10:38:35.079Z,9.20
2018-11-29T10:41:09.877Z,11.00
2018-11-29T10:43:44.635Z,11.80
2018-11-29T10:46:18.983Z,12.47
2018-11-29T10:48:53.804Z,9.97
2018-11-29T10:51:28.083Z,12.17
2018-11-29T10:54:02.611Z,11.17
2018-11-29T10:56:37.051Z,11.03
2018-11-29T10:59:11.869Z,17.33
2018-11-29T11:02:50.155Z,12.47
2018-11-29T11:05:24.469Z,11.70
2018-11-29T11:07:59.016Z,14.53
2018-11-29T11:10:33.982Z,9.40
2018-11-29T11:13:08.281Z,11.30
2018-11-29T11:15:42.980Z,15.60
2018-11-29T11:18:18.051Z,13.70
2018-11-29T11:20:52.357Z,11.40
2018-11-29T11:23:27.019Z,11.40
2018-11-29T11:26:01.836Z,11.73
2018-11-29T11:28:36.051Z,12.20
2018-11-29T11:31:10.752Z,18.37
2018-11-29T11:33:46.227Z,17.40
2018-11-29T11:36:21.128Z,20.10
2018-11-29T11:38:55.624Z,16.60
2018-11-29T11:41:30.847Z,20.03
2018-11-29T11:44:05.907Z,21.93
2018-11-29T11:46:40.686Z,20.90
2018-11-29T11:49:14.953Z,17.20
2018-11-29T11:51:49.928Z,15.30
2018-11-29T11:54:24.312Z,18.07
2018-11-29T11:56:59.060Z,18.33
2018-11-29T11:59:33.703Z,18.50
2018-11-29T12:02:08.308Z,21.00
2018-11-29T12:04:42.849Z,25.97
2018-11-29T12:07:17.700Z,20.20
2018-11-29T12:09:52.083Z,21.83
2018-11-29T12:12:26.608Z,18.60
2018-11-29T12:15:01.252Z,18.43
2018-11-29T12:17:36.095Z,20.50
2018-11-29T12:20:16.834Z,28.83
2018-11-29T12:22:51.591Z,23.20
2018-11-29T12:25:25.787Z,17.70
2018-11-29T12:28:01.378Z,20.23
2018-11-29T12:30:40.267Z,22.13
2018-11-29T12:33:15.823Z,24.57
2018-11-29T12:35:50.584Z,27.37
2018-11-29T12:38:25.414Z,21.07
2018-11-29T12:40:59.893Z,19.23
2018-11-29T12:43:35.275Z,21.73
2018-11-29T12:46:09.449Z,21.07
2018-11-29T12:48:44.263Z,19.93
2018-11-29T12:51:18.840Z,27.20
2018-11-29T12:53:53.538Z,22.73
2018-11-29T12:56:29.037Z,21.00
2018-11-29T12:59:04.267Z,20.83
2018-11-29T13:01:38.676Z,17.50
2018-11-29T13:04:13.148Z,23.13
2018-11-29T13:06:47.838Z,23.53
2018-11-29T13:09:22.910Z,22.47
2018-11-29T13:11:58.074Z,21.00
2018-11-29T13:14:33.452Z,18.90
2018-11-29T13:17:07.721Z,20.77
2018-11-29T13:19:42.561Z,20.73
2018-11-29T13:22:17.417Z,23.00
2018-11-29T13:24:52.364Z,19.20
2018-11-29T13:27:27.089Z,21.83
2018-11-29T13:30:01.955Z,24.63
2018-11-29T13:32:36.777Z,21.93
2018-11-29T13:35:29.947Z,22.73
2018-11-29T13:38:10.728Z,29.63
2018-11-29T13:40:47.566Z,25.00
2018-11-29T13:43:22.240Z,32.93
2018-11-29T13:45:56.935Z,23.40
2018-11-29T13:48:32.274Z,27.03
2018-11-29T13:51:07.169Z,27.73
2018-11-29T13:53:41.917Z,29.73
2018-11-29T13:56:16.867Z,31.60
2018-11-29T13:58:51.159Z,28.50
2018-11-29T14:01:25.787Z,29.23
2018-11-29T14:04:00.504Z,30.40
2018-11-29T14:06:35.067Z,30.37
2018-11-29T14:09:10.139Z,31.50
2018-11-29T14:11:44.522Z,32.23
2018-11-29T14:14:19.015Z,31.27
2018-11-29T14:16:53.607Z,28.83
2018-11-29T14:19:28.092Z,30.33
2018-11-29T14:22:02.981Z,35.73
2018-11-29T14:24:37.511Z,31.63
2018-11-29T14:27:12.139Z,25.63
2018-11-29T14:29:46.846Z,23.30
2018-11-29T14:32:21.420Z,31.33
2018-11-29T14:34:55.939Z,25.93
2018-11-29T14:37:30.624Z,31.13
2018-11-29T14:40:10.856Z,31.13
2018-11-29T14:42:45.346Z,30.13
2018-11-29T14:45:23.451Z,26.80
2018-11-29T14:47:58.447Z,24.67
2018-11-29T14:50:38.682Z,31.90
2018-11-29T14:53:13.479Z,32.20
2018-11-29T14:55:48.226Z,25.60
2018-11-29T14:58:22.899Z,27.80
2018-11-29T15:00:58.573Z,27.20
2018-11-29T15:03:33.542Z,35.00
2018-11-29T15:06:07.887Z,31.97
2018-11-29T15:08:42.495Z,26.67
2018-11-29T15:11:17.550Z,33.13
2018-11-29T15:13:52.642Z,28.70
2018-11-29T15:16:27.343Z,29.80
2018-11-29T15:19:02.100Z,27.50
2018-11-29T15:21:36.715Z,27.47
2018-11-29T15:24:11.609Z,34.20
2018-11-29T15:26:46.073Z,28.10
2018-11-29T15:29:21.258Z,32.27
2018-11-29T15:31:55.627Z,28.37
2018-11-29T15:37:11.519Z,29.30
2018-11-29T15:39:46.019Z,31.77
2018-11-29T15:42:21.027Z,29.20
2018-11-29T15:44:55.655Z,29.10
2018-11-29T15:47:30.188Z,29.60
2018-11-29T15:50:10.952Z,29.73
2018-11-29T15:52:45.368Z,32.03
2018-11-29T15:55:21.837Z,32.40
2018-11-29T15:57:56.631Z,26.40
2018-11-29T16:00:31.302Z,29.83
2018-11-29T16:03:08.102Z,32.10
2018-11-29T16:05:43.405Z,30.63
2018-11-29T16:08:17.767Z,33.43
2018-11-29T16:10:52.921Z,28.30
2018-11-29T16:13:28.191Z,34.13
2018-11-29T16:16:02.339Z,31.97
2018-11-29T16:18:36.892Z,34.17
2018-11-29T16:21:11.350Z,29.53
2018-11-29T16:23:46.238Z,33.50
2018-11-29T16:26:20.563Z,33.67
2018-11-29T16:28:56.329Z,32.00
2018-11-29T16:31:30.571Z,32.30
2018-11-29T16:34:05.350Z,38.50
2018-11-29T16:36:39.832Z,32.67
2018-11-29T16:39:14.947Z,36.23
2018-11-29T16:41:49.799Z,32.47
2018-11-29T16:44:24.363Z,37.50
2018-11-29T16:46:58.909Z,34.03
2018-11-29T16:49:33.563Z,30.80
2018-11-29T16:52:08.204Z,31.23
2018-11-29T16:54:42.772Z,32.53
2018-11-29T16:57:17.307Z,34.33
2018-11-29T16:59:52.120Z,30.10
2018-11-29T17:02:26.405Z,34.73
2018-11-29T17:05:00.930Z,30.13
2018-11-29T17:07:35.491Z,33.13
2018-11-29T17:10:12.747Z,34.40
2018-11-29T17:12:52.820Z,38.90
2018-11-29T17:15:27.351Z,35.10
2018-11-29T17:18:02.278Z,33.67
2018-11-29T17:20:36.960Z,40.87
2018-11-29T17:23:12.136Z,33.63
2018-11-29T17:25:46.989Z,35.03
2018-11-29T17:28:21.424Z,35.80
2018-11-29T17:30:56.339Z,38.57
2018-11-29T17:33:31.428Z,40.90
2018-11-29T17:36:06.119Z,31.97
2018-11-29T17:38:40.681Z,29.67
2018-11-29T17:41:15.348Z,33.30
2018-11-29T17:43:49.855Z,32.87
2018-11-29T17:46:24.711Z,32.13
2018-11-29T17:48:58.938Z,45.40
2018-11-29T17:51:36.828Z,31.17
2018-11-29T17:54:11.006Z,32.43
2018-11-29T17:56:45.999Z,40.53
2018-11-29T17:59:20.372Z,39.80
2018-11-29T18:01:54.932Z,40.47
2018-11-29T18:04:29.835Z,34.50
2018-11-29T18:07:06.628Z,36.77
2018-11-29T18:09:41.033Z,35.20
2018-11-29T18:12:15.868Z,43.20
2018-11-29T18:14:50.059Z,39.27
2018-11-29T18:17:24.661Z,40.43
2018-11-29T18:19:59.224Z,47.37
2018-11-29T18:22:33.859Z,35.53
2018-11-29T18:25:11.811Z,41.37
2018-11-29T18:27:49.479Z,38.77
2018-11-29T18:30:24.456Z,41.80
2018-11-29T18:32:59.049Z,42.37
2018-11-29T18:35:33.850Z,43.47
2018-11-29T18:38:08.350Z,40.07
2018-11-29T18:40:42.995Z,43.63
2018-11-29T18:43:17.863Z,38.27
2018-11-29T18:45:52.272Z,36.87
2018-11-29T18:48:26.862Z,43.43
2018-11-29T18:51:01.567Z,44.03
2018-11-29T18:53:36.471Z,41.10
2018-11-29T18:56:11.520Z,40.60
2018-11-29T18:58:46.068Z,38.40
2018-11-29T19:01:20.635Z,36.60
2018-11-29T19:03:55.184Z,36.93
2018-11-29T19:06:29.815Z,39.17
2018-11-29T19:09:07.503Z,38.30
2018-11-29T19:11:41.846Z,39.80
2018-11-29T19:14:16.501Z,38.93
2018-11-29T19:16:51.219Z,35.33
2018-11-29T19:19:25.925Z,38.07
2018-11-29T19:22:00.484Z,37.80
2018-11-29T19:24:35.094Z,41.63
2018-11-29T19:27:09.780Z,41.87
2018-11-29T19:29:44.420Z,40.67
2018-11-29T19:32:19.005Z,38.43
2018-11-29T19:34:53.928Z,43.10
2018-11-29T19:37:28.111Z,40.00
2018-11-29T19:40:03.682Z,43.17
2018-11-29T19:42:38.515Z,41.00
2018-11-29T19:45:15.567Z,36.70
2018-11-29T19:47:51.501Z,43.53
2018-11-29T19:50:26.316Z,44.03
2018-11-29T19:53:03.698Z,34.23
2018-11-29T19:55:38.602Z,43.53
2018-11-29T19:58:14.851Z,38.40
2018-11-29T20:00:50.604Z,33.53
2018-11-29T20:03:26.705Z,34.87
2018-11-29T20:06:02.980Z,37.07
2018-11-29T20:08:38.549Z,38.80
2018-11-29T20:11:14.932Z,40.73
2018-11-29T20:13:50.876Z,34.13
2018-11-29T20:16:26.245Z,34.43
2018-11-29T20:19:01.921Z,38.20
2018-11-29T20:21:37.675Z,36.63
2018-11-29T20:24:12.548Z,30.30
2018-11-29T20:26:47.480Z,37.30
2018-11-29T20:29:22.527Z,36.87
2018-11-29T20:31:57.157Z,36.60
2018-11-29T20:34:31.820Z,35.40
2018-11-29T20:37:06.696Z,36.90
2018-11-29T20:39:41.003Z,40.60
2018-11-29T20:42:15.470Z,37.83
2018-11-29T20:44:49.750Z,33.53
2018-11-29T20:47:25.243Z,42.03
2018-11-29T20:49:59.820Z,44.53
2018-11-29T20:52:35.316Z,40.57
2018-11-29T20:55:12.347Z,41.60
2018-11-29T20:57:46.484Z,50.07
2018-11-29T21:00:21.228Z,41.80
2018-11-29T21:02:55.730Z,42.87
2018-11-29T21:05:30.477Z,41.60
2018-11-29T21:08:06.594Z,40.13
2018-11-29T21:10:41.753Z,43.40
2018-11-29T21:13:16.915Z,40.10
2018-11-29T21:15:51.938Z,39.83
2018-11-29T21:18:26.224Z,34.17
2018-11-29T21:21:00.757Z,34.87
2018-11-29T21:23:35.163Z,36.13
2018-11-29T21:26:09.791Z,41.53
2018-11-29T21:28:44.242Z,40.60
2018-11-29T21:31:18.706Z,40.30
2018-11-29T21:33:53.215Z,35.67
2018-11-29T21:36:27.901Z,39.77
2018-11-29T21:39:02.731Z,32.70
2018-11-29T21:41:37.160Z,39.00
2018-11-29T21:44:12.124Z,35.50
2018-11-29T21:46:46.323Z,42.33
2018-11-29T21:49:21.273Z,39.80
2018-11-29T21:51:56.299Z,42.60
2018-11-29T21:54:31.003Z,39.97
2018-11-29T21:57:05.774Z,41.30
2018-11-29T21:59:40.389Z,43.67
2018-11-29T22:02:15.155Z,41.53
2018-11-29T22:04:49.628Z,38.57
2018-11-29T22:07:24.236Z,38.50
2018-11-29T22:09:59.145Z,40.30
2018-11-29T22:12:33.418Z,38.17
2018-11-29T22:15:10.890Z,36.80
2018-11-29T22:18:29.704Z,42.23
2018-11-29T22:21:05.457Z,43.33
2018-11-29T22:23:40.803Z,45.67
2018-11-29T22:26:16.500Z,39.27
2018-11-29T22:28:50.652Z,40.67
2018-11-29T22:31:25.287Z,43.00
2018-11-29T22:34:00.083Z,36.80
2018-11-29T22:36:34.422Z,39.53
2018-11-29T22:39:09.707Z,42.57
2018-11-29T22:41:44.351Z,35.27
2018-11-29T22:44:18.953Z,42.30
2018-11-29T22:46:53.714Z,41.53
2018-11-29T22:49:28.238Z,43.40
2018-11-29T22:52:02.824Z,42.30
2018-11-29T22:54:37.424Z,42.50
2018-11-29T22:57:12.075Z,40.10
2018-11-29T22:59:46.880Z,34.70
2018-11-29T23:02:21.625Z,40.07
2018-11-29T23:04:55.865Z,40.30
2018-11-29T23:07:30.418Z,41.47
2018-11-29T23:10:07.727Z,40.10
2018-11-29T23:12:42.715Z,40.30
2018-11-29T23:15:17.657Z,40.80
2018-11-29T23:17:51.823Z,41.40
2018-11-29T23:20:26.190Z,42.73
2018-11-29T23:23:00.903Z,38.67
2018-11-29T23:25:35.620Z,36.87
2018-11-29T23:28:10.442Z,39.73
2018-11-29T23:30:44.689Z,39.20
2018-11-29T23:33:19.363Z,41.20
2018-11-29T23:35:53.832Z,37.57
2018-11-29T23:38:28.548Z,34.60
2018-11-29T23:41:02.894Z,37.50
2018-11-29T23:43:37.448Z,38.20
2018-11-29T23:46:11.915Z,37.40
2018-11-29T23:48:46.551Z,36.03
2018-11-29T23:51:21.035Z,36.87
2018-11-29T23:53:55.410Z,34.97
2018-11-29T23:56:29.816Z,39.30
2018-11-29T23:59:04.790Z,33.60
